createdAt,value
2022-10-02T00:02:57.262Z,8.52
2022-10-02T00:13:06.121Z,10.20
2022-10-02T00:23:18.424Z,9.30
2022-10-02T00:33:34.282Z,10.65
2022-10-02T00:43:54.868Z,8.93
2022-10-02T00:54:06.846Z,9.43
2022-10-02T01:04:34.569Z,9.45
2022-10-02T01:14:44.743Z,11.35
2022-10-02T01:24:55.453Z,10.55
2022-10-02T01:35:04.999Z,10.27
2022-10-02T01:45:12.462Z,10.80
2022-10-02T01:55:32.895Z,11.25
2022-10-02T02:05:50.677Z,10.30
2022-10-02T02:16:06.519Z,8.25
2022-10-02T02:26:13.075Z,8.68
2022-10-02T02:36:27.236Z,9.45
2022-10-02T02:47:03.279Z,9.43
2022-10-02T02:57:12.741Z,8.45
2022-10-02T03:07:21.033Z,8.20
2022-10-02T03:17:43.460Z,7.40
2022-10-02T03:28:01.829Z,8.10
2022-10-02T03:38:17.585Z,7.30
2022-10-02T03:48:25.825Z,10.73
2022-10-02T03:58:31.032Z,10.13
2022-10-02T04:08:39.793Z,9.75
2022-10-02T04:18:57.047Z,10.13
2022-10-02T04:29:14.836Z,8.10
2022-10-02T04:39:46.492Z,7.15
2022-10-02T04:50:11.325Z,7.93
2022-10-02T05:00:23.889Z,8.63
2022-10-02T05:10:53.585Z,9.07
2022-10-02T05:21:17.860Z,10.10
2022-10-02T05:31:34.012Z,7.60
2022-10-02T05:41:47.165Z,10.18
2022-10-02T05:52:01.231Z,9.93
2022-10-02T06:02:16.664Z,8.98
2022-10-02T06:12:33.907Z,8.10
2022-10-02T06:32:56.042Z,9.07
2022-10-02T06:43:08.028Z,10.27
2022-10-02T06:53:45.647Z,8.23
2022-10-02T07:04:31.270Z,8.10
2022-10-02T07:15:16.086Z,7.83
2022-10-02T07:25:48.010Z,6.85
2022-10-02T07:36:12.160Z,7.70
2022-10-02T07:46:29.390Z,6.30
2022-10-02T07:56:37.120Z,7.05
2022-10-02T08:06:47.319Z,5.80
2022-10-02T08:16:55.143Z,7.30
2022-10-02T08:27:11.058Z,5.97
2022-10-02T08:37:38.894Z,5.70
2022-10-02T08:48:22.647Z,6.00
2022-10-02T08:59:05.927Z,3.90
2022-10-02T09:09:54.701Z,4.53
2022-10-02T09:20:42.155Z,5.20
2022-10-02T09:31:32.711Z,4.38
2022-10-02T09:42:16.596Z,4.47
2022-10-02T09:52:56.823Z,4.03
2022-10-02T10:03:39.657Z,4.03
2022-10-02T10:14:34.080Z,3.93
2022-10-02T10:25:31.901Z,3.53
2022-10-02T10:35:54.702Z,3.70
2022-10-02T10:57:42.670Z,2.70
2022-10-02T11:08:20.512Z,4.75
2022-10-02T11:19:07.995Z,3.47
2022-10-02T11:29:35.535Z,3.00
2022-10-02T11:40:08.327Z,5.15
2022-10-02T11:51:03.785Z,4.60
2022-10-02T12:01:33.610Z,5.20
2022-10-02T12:45:21.860Z,3.67
2022-10-02T12:56:08.690Z,4.38
2022-10-02T13:06:42.840Z,4.10
2022-10-02T13:17:18.206Z,5.85
2022-10-02T13:27:37.494Z,4.93
2022-10-02T13:37:56.043Z,4.93
2022-10-02T13:48:14.041Z,4.35
2022-10-02T13:58:42.598Z,4.53
2022-10-02T14:09:12.415Z,6.35
2022-10-02T14:19:48.656Z,5.75
2022-10-02T14:30:10.736Z,6.57
2022-10-02T14:40:24.464Z,10.20
2022-10-02T14:50:59.033Z,9.95
2022-10-02T15:43:32.836Z,5.63
2022-10-02T16:05:30.884Z,8.90
2022-10-02T16:15:57.186Z,8.20
2022-10-02T16:26:40.424Z,8.38
2022-10-02T16:36:56.318Z,6.68
2022-10-02T16:47:17.876Z,8.05
2022-10-02T17:08:38.346Z,6.75
2022-10-02T18:24:07.880Z,15.77
2022-10-02T18:45:12.244Z,8.93
2022-10-02T18:55:44.101Z,11.75
2022-10-02T19:16:23.596Z,7.50
2022-10-02T19:26:37.846Z,11.60
2022-10-02T19:36:50.538Z,6.93
2022-10-02T19:46:59.414Z,6.20
2022-10-02T19:57:13.456Z,8.20
2022-10-02T20:07:31.010Z,6.90
2022-10-02T20:17:39.069Z,6.32
2022-10-02T20:27:56.571Z,6.82
2022-10-02T20:38:19.700Z,7.35
2022-10-02T20:49:08.541Z,6.95
2022-10-02T20:59:59.409Z,6.38
2022-10-02T21:10:43.372Z,6.97
2022-10-02T21:21:24.500Z,6.65
2022-10-02T21:31:42.492Z,7.68
2022-10-02T21:42:38.501Z,8.32
2022-10-02T21:53:36.709Z,9.57
2022-10-02T22:04:21.767Z,10.43
2022-10-02T22:14:33.432Z,14.43
2022-10-02T22:25:09.806Z,14.98
2022-10-02T22:35:24.322Z,14.65
2022-10-02T22:45:35.155Z,15.63
2022-10-02T22:55:55.275Z,13.13
2022-10-02T23:06:07.186Z,13.35
2022-10-02T23:16:20.726Z,13.32
2022-10-02T23:26:34.318Z,11.70
2022-10-02T23:36:48.557Z,13.65
2022-10-02T23:47:10.429Z,10.10
2022-10-02T23:57:39.487Z,9.88
